sensor_id;sensor_type;location;lat;lon;timestamp;temperature;humidity
35497;DHT22;21609;49.298;6.844;2024-02-23T00:01:54;17.30;53.50
35497;DHT22;21609;49.298;6.844;2024-02-23T00:04:20;17.30;53.50
35497;DHT22;21609;49.298;6.844;2024-02-23T00:06:45;17.30;53.50
35497;DHT22;21609;49.298;6.844;2024-02-23T00:09:11;17.30;53.50
35497;DHT22;21609;49.298;6.844;2024-02-23T00:11:42;17.30;53.50
35497;DHT22;21609;49.298;6.844;2024-02-23T00:14:11;17.30;53.50
35497;DHT22;21609;49.298;6.844;2024-02-23T00:16:40;17.20;53.50
35497;DHT22;21609;49.298;6.844;2024-02-23T00:19:08;17.20;53.50
35497;DHT22;21609;49.298;6.844;2024-02-23T00:21:34;17.20;53.50
35497;DHT22;21609;49.298;6.844;2024-02-23T00:23:59;17.20;53.50
35497;DHT22;21609;49.298;6.844;2024-02-23T00:26:25;17.20;53.50
35497;DHT22;21609;49.298;6.844;2024-02-23T00:28:50;17.20;53.50
35497;DHT22;21609;49.298;6.844;2024-02-23T00:31:16;17.20;53.50
35497;DHT22;21609;49.298;6.844;2024-02-23T00:33:41;17.20;53.50
35497;DHT22;21609;49.298;6.844;2024-02-23T00:36:08;17.20;53.50
35497;DHT22;21609;49.298;6.844;2024-02-23T00:38:33;17.20;53.50
35497;DHT22;21609;49.298;6.844;2024-02-23T00:40:59;17.10;53.50
35497;DHT22;21609;49.298;6.844;2024-02-23T00:43:24;17.10;53.50
35497;DHT22;21609;49.298;6.844;2024-02-23T00:45:50;17.10;53.50
35497;DHT22;21609;49.298;6.844;2024-02-23T00:48:15;17.10;53.50
35497;DHT22;21609;49.298;6.844;2024-02-23T00:50:41;17.10;53.50
35497;DHT22;21609;49.298;6.844;2024-02-23T00:53:06;17.10;53.50
35497;DHT22;21609;49.298;6.844;2024-02-23T00:55:32;17.10;53.50
35497;DHT22;21609;49.298;6.844;2024-02-23T00:57:57;17.10;53.50
35497;DHT22;21609;49.298;6.844;2024-02-23T01:00:24;17.10;53.50
35497;DHT22;21609;49.298;6.844;2024-02-23T01:02:50;17.10;53.50
35497;DHT22;21609;49.298;6.844;2024-02-23T01:05:16;17.00;53.60
35497;DHT22;21609;49.298;6.844;2024-02-23T01:07:42;17.10;53.60
35497;DHT22;21609;49.298;6.844;2024-02-23T01:10:07;17.00;53.50
35497;DHT22;21609;49.298;6.844;2024-02-23T01:12:33;17.00;53.50
35497;DHT22;21609;49.298;6.844;2024-02-23T01:14:59;17.00;53.60
35497;DHT22;21609;49.298;6.844;2024-02-23T01:17:24;17.00;53.50
35497;DHT22;21609;49.298;6.844;2024-02-23T01:19:50;17.00;53.50
35497;DHT22;21609;49.298;6.844;2024-02-23T01:22:16;17.10;53.60
35497;DHT22;21609;49.298;6.844;2024-02-23T01:24:41;17.00;53.50
35497;DHT22;21609;49.298;6.844;2024-02-23T01:27:07;17.00;53.60
35497;DHT22;21609;49.298;6.844;2024-02-23T01:29:33;17.00;53.70
35497;DHT22;21609;49.298;6.844;2024-02-23T01:31:59;17.00;53.70
35497;DHT22;21609;49.298;6.844;2024-02-23T01:34:25;17.00;53.70
35497;DHT22;21609;49.298;6.844;2024-02-23T01:36:51;17.00;53.70
35497;DHT22;21609;49.298;6.844;2024-02-23T01:39:16;16.90;53.70
35497;DHT22;21609;49.298;6.844;2024-02-23T01:41:42;17.00;53.70
35497;DHT22;21609;49.298;6.844;2024-02-23T01:44:09;16.90;53.70
35497;DHT22;21609;49.298;6.844;2024-02-23T01:46:35;16.90;53.70
35497;DHT22;21609;49.298;6.844;2024-02-23T01:49:01;16.90;53.70
35497;DHT22;21609;49.298;6.844;2024-02-23T01:51:27;16.90;53.70
35497;DHT22;21609;49.298;6.844;2024-02-23T01:53:53;16.90;53.70
35497;DHT22;21609;49.298;6.844;2024-02-23T01:56:19;16.90;53.70
35497;DHT22;21609;49.298;6.844;2024-02-23T01:58:46;16.90;53.70
35497;DHT22;21609;49.298;6.844;2024-02-23T02:01:12;16.90;53.80
35497;DHT22;21609;49.298;6.844;2024-02-23T02:03:38;16.90;53.70
35497;DHT22;21609;49.298;6.844;2024-02-23T02:06:09;16.90;53.70
35497;DHT22;21609;49.298;6.844;2024-02-23T02:08:35;16.90;53.80
35497;DHT22;21609;49.298;6.844;2024-02-23T02:11:00;16.80;53.70
35497;DHT22;21609;49.298;6.844;2024-02-23T02:13:28;16.80;53.80
35497;DHT22;21609;49.298;6.844;2024-02-23T02:15:54;16.80;53.80
35497;DHT22;21609;49.298;6.844;2024-02-23T02:18:19;16.80;53.70
35497;DHT22;21609;49.298;6.844;2024-02-23T02:20:55;16.80;53.80
35497;DHT22;21609;49.298;6.844;2024-02-23T02:23:22;16.80;53.80
35497;DHT22;21609;49.298;6.844;2024-02-23T02:25:57;16.80;53.80
35497;DHT22;21609;49.298;6.844;2024-02-23T02:28:24;16.80;53.80
35497;DHT22;21609;49.298;6.844;2024-02-23T02:30:51;16.70;53.70
35497;DHT22;21609;49.298;6.844;2024-02-23T02:33:17;16.70;53.70
35497;DHT22;21609;49.298;6.844;2024-02-23T02:35:43;16.80;53.80
35497;DHT22;21609;49.298;6.844;2024-02-23T02:38:09;16.80;53.80
35497;DHT22;21609;49.298;6.844;2024-02-23T02:40:35;16.80;53.80
35497;DHT22;21609;49.298;6.844;2024-02-23T02:43:01;16.70;53.80
35497;DHT22;21609;49.298;6.844;2024-02-23T02:45:26;16.70;53.80
35497;DHT22;21609;49.298;6.844;2024-02-23T02:47:52;16.70;53.80
35497;DHT22;21609;49.298;6.844;2024-02-23T02:50:17;16.70;53.80
35497;DHT22;21609;49.298;6.844;2024-02-23T02:52:43;16.70;53.80
35497;DHT22;21609;49.298;6.844;2024-02-23T02:55:08;16.70;53.80
35497;DHT22;21609;49.298;6.844;2024-02-23T02:57:34;16.70;53.80
35497;DHT22;21609;49.298;6.844;2024-02-23T03:00:02;16.70;53.80
35497;DHT22;21609;49.298;6.844;2024-02-23T03:02:33;16.70;53.90
35497;DHT22;21609;49.298;6.844;2024-02-23T03:04:58;16.60;53.80
35497;DHT22;21609;49.298;6.844;2024-02-23T03:07:24;16.70;53.90
35497;DHT22;21609;49.298;6.844;2024-02-23T03:09:49;16.70;53.90
35497;DHT22;21609;49.298;6.844;2024-02-23T03:12:16;16.60;54.40
35497;DHT22;21609;49.298;6.844;2024-02-23T03:14:42;16.60;53.80
35497;DHT22;21609;49.298;6.844;2024-02-23T03:17:08;16.60;53.90
35497;DHT22;21609;49.298;6.844;2024-02-23T03:19:37;16.60;53.90
35497;DHT22;21609;49.298;6.844;2024-02-23T03:22:03;16.60;53.80
35497;DHT22;21609;49.298;6.844;2024-02-23T03:24:29;16.60;53.90
35497;DHT22;21609;49.298;6.844;2024-02-23T03:26:55;16.60;53.90
35497;DHT22;21609;49.298;6.844;2024-02-23T03:29:21;16.60;53.90
35497;DHT22;21609;49.298;6.844;2024-02-23T03:31:52;16.60;53.90
35497;DHT22;21609;49.298;6.844;2024-02-23T03:34:19;16.50;53.80
35497;DHT22;21609;49.298;6.844;2024-02-23T03:36:44;16.50;53.80
35497;DHT22;21609;49.298;6.844;2024-02-23T03:39:10;16.50;53.80
35497;DHT22;21609;49.298;6.844;2024-02-23T03:41:35;16.50;53.90
35497;DHT22;21609;49.298;6.844;2024-02-23T03:44:01;16.50;53.80
35497;DHT22;21609;49.298;6.844;2024-02-23T03:46:26;16.50;53.90
35497;DHT22;21609;49.298;6.844;2024-02-23T03:48:52;16.50;53.90
35497;DHT22;21609;49.298;6.844;2024-02-23T03:51:18;16.50;53.90
35497;DHT22;21609;49.298;6.844;2024-02-23T03:53:43;16.50;53.90
35497;DHT22;21609;49.298;6.844;2024-02-23T03:56:09;16.50;53.90
35497;DHT22;21609;49.298;6.844;2024-02-23T03:58:34;16.50;53.90
35497;DHT22;21609;49.298;6.844;2024-02-23T04:01:00;16.50;54.20
35497;DHT22;21609;49.298;6.844;2024-02-23T04:03:25;16.50;53.90
35497;DHT22;21609;49.298;6.844;2024-02-23T04:05:51;16.40;53.90
35497;DHT22;21609;49.298;6.844;2024-02-23T04:08:16;16.40;53.90
35497;DHT22;21609;49.298;6.844;2024-02-23T04:10:42;16.40;53.90
35497;DHT22;21609;49.298;6.844;2024-02-23T04:13:07;16.40;53.90
35497;DHT22;21609;49.298;6.844;2024-02-23T04:15:34;16.40;53.90
35497;DHT22;21609;49.298;6.844;2024-02-23T04:17:59;16.40;53.90
35497;DHT22;21609;49.298;6.844;2024-02-23T04:20:25;16.40;53.90
35497;DHT22;21609;49.298;6.844;2024-02-23T04:22:50;16.40;53.90
35497;DHT22;21609;49.298;6.844;2024-02-23T04:25:16;16.40;53.90
35497;DHT22;21609;49.298;6.844;2024-02-23T04:27:41;16.40;53.90
35497;DHT22;21609;49.298;6.844;2024-02-23T04:30:09;16.40;54.50
35497;DHT22;21609;49.298;6.844;2024-02-23T04:32:35;16.40;54.00
35497;DHT22;21609;49.298;6.844;2024-02-23T04:35:01;16.40;54.00
35497;DHT22;21609;49.298;6.844;2024-02-23T04:37:26;16.40;54.00
35497;DHT22;21609;49.298;6.844;2024-02-23T04:39:52;16.30;53.90
35497;DHT22;21609;49.298;6.844;2024-02-23T04:42:17;16.30;53.90
35497;DHT22;21609;49.298;6.844;2024-02-23T04:44:43;16.30;53.90
35497;DHT22;21609;49.298;6.844;2024-02-23T04:47:08;16.30;54.00
35497;DHT22;21609;49.298;6.844;2024-02-23T04:49:34;16.30;54.00
35497;DHT22;21609;49.298;6.844;2024-02-23T04:52:00;16.30;53.90
35497;DHT22;21609;49.298;6.844;2024-02-23T04:54:25;16.30;54.00
35497;DHT22;21609;49.298;6.844;2024-02-23T04:56:51;16.30;53.90
35497;DHT22;21609;49.298;6.844;2024-02-23T04:59:16;16.30;54.00
35497;DHT22;21609;49.298;6.844;2024-02-23T05:01:42;16.30;54.00
35497;DHT22;21609;49.298;6.844;2024-02-23T05:04:08;16.30;54.00
35497;DHT22;21609;49.298;6.844;2024-02-23T05:06:33;16.30;54.00
35497;DHT22;21609;49.298;6.844;2024-02-23T05:08:59;16.20;53.90
35497;DHT22;21609;49.298;6.844;2024-02-23T05:11:25;16.20;54.00
35497;DHT22;21609;49.298;6.844;2024-02-23T05:13:50;16.20;53.90
35497;DHT22;21609;49.298;6.844;2024-02-23T05:16:16;16.20;54.00
35497;DHT22;21609;49.298;6.844;2024-02-23T05:18:41;16.20;54.00
35497;DHT22;21609;49.298;6.844;2024-02-23T05:21:07;16.20;54.00
35497;DHT22;21609;49.298;6.844;2024-02-23T05:23:33;16.20;54.00
35497;DHT22;21609;49.298;6.844;2024-02-23T05:25:58;16.20;54.00
35497;DHT22;21609;49.298;6.844;2024-02-23T05:28:24;16.20;53.90
35497;DHT22;21609;49.298;6.844;2024-02-23T05:30:50;16.20;53.90
35497;DHT22;21609;49.298;6.844;2024-02-23T05:33:16;16.20;54.00
35497;DHT22;21609;49.298;6.844;2024-02-23T05:35:41;16.10;53.90
35497;DHT22;21609;49.298;6.844;2024-02-23T05:38:07;16.10;53.90
35497;DHT22;21609;49.298;6.844;2024-02-23T05:40:32;16.10;54.00
35497;DHT22;21609;49.298;6.844;2024-02-23T05:42:58;16.10;54.50
35497;DHT22;21609;49.298;6.844;2024-02-23T05:45:24;16.20;54.00
35497;DHT22;21609;49.298;6.844;2024-02-23T05:47:49;16.10;54.00
35497;DHT22;21609;49.298;6.844;2024-02-23T05:50:15;16.10;54.00
35497;DHT22;21609;49.298;6.844;2024-02-23T05:52:41;16.10;54.00
35497;DHT22;21609;49.298;6.844;2024-02-23T05:55:07;16.10;54.00
35497;DHT22;21609;49.298;6.844;2024-02-23T05:57:33;16.10;54.00
35497;DHT22;21609;49.298;6.844;2024-02-23T05:59:59;16.10;54.00
35497;DHT22;21609;49.298;6.844;2024-02-23T06:02:24;16.10;54.00
35497;DHT22;21609;49.298;6.844;2024-02-23T06:04:50;16.10;54.00
35497;DHT22;21609;49.298;6.844;2024-02-23T06:07:15;16.10;54.00
35497;DHT22;21609;49.298;6.844;2024-02-23T06:09:42;16.10;54.10
35497;DHT22;21609;49.298;6.844;2024-02-23T06:12:08;16.00;54.00
35497;DHT22;21609;49.298;6.844;2024-02-23T06:14:34;16.00;54.00
35497;DHT22;21609;49.298;6.844;2024-02-23T06:17:00;16.00;54.00
35497;DHT22;21609;49.298;6.844;2024-02-23T06:19:25;16.00;54.00
35497;DHT22;21609;49.298;6.844;2024-02-23T06:21:51;16.00;54.00
35497;DHT22;21609;49.298;6.844;2024-02-23T06:24:16;16.00;54.00
35497;DHT22;21609;49.298;6.844;2024-02-23T06:26:43;16.00;54.00
35497;DHT22;21609;49.298;6.844;2024-02-23T06:29:08;16.00;54.00
35497;DHT22;21609;49.298;6.844;2024-02-23T06:31:37;16.00;54.00
35497;DHT22;21609;49.298;6.844;2024-02-23T06:34:03;15.90;53.90
35497;DHT22;21609;49.298;6.844;2024-02-23T06:36:29;15.80;53.00
35497;DHT22;21609;49.298;6.844;2024-02-23T06:38:54;15.60;53.10
35497;DHT22;21609;49.298;6.844;2024-02-23T06:41:20;15.70;54.00
35497;DHT22;21609;49.298;6.844;2024-02-23T06:43:45;15.80;53.90
35497;DHT22;21609;49.298;6.844;2024-02-23T06:46:11;15.90;53.90
35497;DHT22;21609;49.298;6.844;2024-02-23T06:48:37;16.00;53.80
35497;DHT22;21609;49.298;6.844;2024-02-23T06:51:03;16.10;53.60
35497;DHT22;21609;49.298;6.844;2024-02-23T06:53:30;16.20;53.50
35497;DHT22;21609;49.298;6.844;2024-02-23T06:55:56;16.40;53.10
35497;DHT22;21609;49.298;6.844;2024-02-23T06:58:21;16.70;52.70
35497;DHT22;21609;49.298;6.844;2024-02-23T07:00:47;16.90;52.40
35497;DHT22;21609;49.298;6.844;2024-02-23T07:03:13;17.00;52.00
35497;DHT22;21609;49.298;6.844;2024-02-23T07:05:40;17.10;51.90
35497;DHT22;21609;49.298;6.844;2024-02-23T07:08:07;17.10;51.80
35497;DHT22;21609;49.298;6.844;2024-02-23T07:10:33;17.20;51.70
35497;DHT22;21609;49.298;6.844;2024-02-23T07:12:59;17.30;51.60
35497;DHT22;21609;49.298;6.844;2024-02-23T07:15:25;17.30;51.60
35497;DHT22;21609;49.298;6.844;2024-02-23T07:17:51;17.40;51.60
35497;DHT22;21609;49.298;6.844;2024-02-23T07:20:17;17.40;51.50
35497;DHT22;21609;49.298;6.844;2024-02-23T07:22:46;17.40;51.40
35497;DHT22;21609;49.298;6.844;2024-02-23T07:25:15;17.40;51.50
35497;DHT22;21609;49.298;6.844;2024-02-23T07:27:41;17.40;51.50
35497;DHT22;21609;49.298;6.844;2024-02-23T07:30:07;17.50;51.40
35497;DHT22;21609;49.298;6.844;2024-02-23T07:32:33;17.60;51.40
35497;DHT22;21609;49.298;6.844;2024-02-23T07:34:58;17.60;51.30
35497;DHT22;21609;49.298;6.844;2024-02-23T07:37:26;17.70;51.30
35497;DHT22;21609;49.298;6.844;2024-02-23T07:39:52;17.70;51.20
35497;DHT22;21609;49.298;6.844;2024-02-23T07:42:18;17.80;51.30
35497;DHT22;21609;49.298;6.844;2024-02-23T07:44:44;17.80;51.20
35497;DHT22;21609;49.298;6.844;2024-02-23T07:47:10;17.80;51.30
35497;DHT22;21609;49.298;6.844;2024-02-23T07:49:36;17.90;51.20
35497;DHT22;21609;49.298;6.844;2024-02-23T07:52:02;17.90;51.40
35497;DHT22;21609;49.298;6.844;2024-02-23T07:54:28;17.90;51.50
35497;DHT22;21609;49.298;6.844;2024-02-23T07:56:53;17.90;51.50
35497;DHT22;21609;49.298;6.844;2024-02-23T07:59:19;17.90;51.40
35497;DHT22;21609;49.298;6.844;2024-02-23T08:01:45;18.00;51.50
35497;DHT22;21609;49.298;6.844;2024-02-23T08:04:10;17.90;51.60
35497;DHT22;21609;49.298;6.844;2024-02-23T08:06:36;18.00;51.70
35497;DHT22;21609;49.298;6.844;2024-02-23T08:09:01;18.00;51.70
35497;DHT22;21609;49.298;6.844;2024-02-23T08:11:28;18.00;51.70
35497;DHT22;21609;49.298;6.844;2024-02-23T08:13:53;18.00;51.70
35497;DHT22;21609;49.298;6.844;2024-02-23T08:16:19;18.00;51.60
35497;DHT22;21609;49.298;6.844;2024-02-23T08:18:44;18.10;51.60
35497;DHT22;21609;49.298;6.844;2024-02-23T08:21:10;18.10;51.60
35497;DHT22;21609;49.298;6.844;2024-02-23T08:23:36;18.10;51.50
35497;DHT22;21609;49.298;6.844;2024-02-23T08:26:02;18.30;51.40
35497;DHT22;21609;49.298;6.844;2024-02-23T08:28:27;18.30;51.40
35497;DHT22;21609;49.298;6.844;2024-02-23T08:30:53;18.20;51.50
35497;DHT22;21609;49.298;6.844;2024-02-23T08:33:18;18.20;51.50
35497;DHT22;21609;49.298;6.844;2024-02-23T08:35:44;18.30;51.60
35497;DHT22;21609;49.298;6.844;2024-02-23T08:38:10;18.30;51.70
35497;DHT22;21609;49.298;6.844;2024-02-23T08:40:36;18.30;51.50
35497;DHT22;21609;49.298;6.844;2024-02-23T08:43:02;18.30;51.60
35497;DHT22;21609;49.298;6.844;2024-02-23T08:45:28;18.40;51.60
35497;DHT22;21609;49.298;6.844;2024-02-23T08:47:53;18.40;51.60
35497;DHT22;21609;49.298;6.844;2024-02-23T08:50:19;18.40;52.20
35497;DHT22;21609;49.298;6.844;2024-02-23T08:52:44;18.40;51.40
35497;DHT22;21609;49.298;6.844;2024-02-23T08:55:10;18.50;51.60
35497;DHT22;21609;49.298;6.844;2024-02-23T08:57:37;18.50;51.50
35497;DHT22;21609;49.298;6.844;2024-02-23T09:00:04;18.60;51.50
35497;DHT22;21609;49.298;6.844;2024-02-23T09:02:30;18.60;51.50
35497;DHT22;21609;49.298;6.844;2024-02-23T09:04:57;18.60;51.40
35497;DHT22;21609;49.298;6.844;2024-02-23T09:07:23;18.60;51.20
35497;DHT22;21609;49.298;6.844;2024-02-23T09:09:49;18.60;51.30
35497;DHT22;21609;49.298;6.844;2024-02-23T09:12:15;18.70;51.90
35497;DHT22;21609;49.298;6.844;2024-02-23T09:14:43;18.70;51.30
35497;DHT22;21609;49.298;6.844;2024-02-23T09:17:09;18.70;51.20
35497;DHT22;21609;49.298;6.844;2024-02-23T09:19:35;18.70;51.20
35497;DHT22;21609;49.298;6.844;2024-02-23T09:22:02;18.70;51.20
35497;DHT22;21609;49.298;6.844;2024-02-23T09:24:27;18.70;51.20
35497;DHT22;21609;49.298;6.844;2024-02-23T09:26:53;18.70;51.10
35497;DHT22;21609;49.298;6.844;2024-02-23T09:29:18;18.70;51.00
35497;DHT22;21609;49.298;6.844;2024-02-23T09:31:44;18.80;51.20
35497;DHT22;21609;49.298;6.844;2024-02-23T09:34:10;18.70;51.10
35497;DHT22;21609;49.298;6.844;2024-02-23T09:36:35;18.80;51.10
35497;DHT22;21609;49.298;6.844;2024-02-23T09:39:01;18.80;51.20
35497;DHT22;21609;49.298;6.844;2024-02-23T09:41:27;18.70;51.10
35497;DHT22;21609;49.298;6.844;2024-02-23T09:43:58;18.70;51.00
35497;DHT22;21609;49.298;6.844;2024-02-23T09:46:25;18.70;51.00
35497;DHT22;21609;49.298;6.844;2024-02-23T09:48:51;18.70;51.00
35497;DHT22;21609;49.298;6.844;2024-02-23T09:51:17;18.70;51.00
35497;DHT22;21609;49.298;6.844;2024-02-23T09:53:43;18.70;51.00
35497;DHT22;21609;49.298;6.844;2024-02-23T09:56:09;18.70;50.90
35497;DHT22;21609;49.298;6.844;2024-02-23T09:58:39;18.70;51.00
35497;DHT22;21609;49.298;6.844;2024-02-23T10:01:06;18.70;50.90
35497;DHT22;21609;49.298;6.844;2024-02-23T10:03:32;18.70;51.00
35497;DHT22;21609;49.298;6.844;2024-02-23T10:05:58;18.70;50.80
35497;DHT22;21609;49.298;6.844;2024-02-23T10:08:25;18.70;51.00
35497;DHT22;21609;49.298;6.844;2024-02-23T10:10:50;18.70;50.80
35497;DHT22;21609;49.298;6.844;2024-02-23T10:13:20;18.70;50.80
35497;DHT22;21609;49.298;6.844;2024-02-23T10:15:47;18.70;50.70
35497;DHT22;21609;49.298;6.844;2024-02-23T10:18:13;18.70;50.80
35497;DHT22;21609;49.298;6.844;2024-02-23T10:20:39;18.70;50.80
35497;DHT22;21609;49.298;6.844;2024-02-23T10:23:05;18.70;50.70
35497;DHT22;21609;49.298;6.844;2024-02-23T10:25:33;18.70;50.40
35497;DHT22;21609;49.298;6.844;2024-02-23T10:28:01;18.70;50.40
35497;DHT22;21609;49.298;6.844;2024-02-23T10:30:27;18.80;50.30
35497;DHT22;21609;49.298;6.844;2024-02-23T10:32:55;18.80;50.00
35497;DHT22;21609;49.298;6.844;2024-02-23T10:35:22;18.90;50.10
35497;DHT22;21609;49.298;6.844;2024-02-23T10:37:49;18.90;50.20
35497;DHT22;21609;49.298;6.844;2024-02-23T10:40:16;19.00;49.90
35497;DHT22;21609;49.298;6.844;2024-02-23T10:42:44;19.00;49.80
35497;DHT22;21609;49.298;6.844;2024-02-23T10:45:19;19.00;49.80
35497;DHT22;21609;49.298;6.844;2024-02-23T10:47:50;18.80;49.40
35497;DHT22;21609;49.298;6.844;2024-02-23T10:50:17;18.70;50.40
35497;DHT22;21609;49.298;6.844;2024-02-23T10:52:45;18.60;51.10
35497;DHT22;21609;49.298;6.844;2024-02-23T10:55:13;18.50;50.70
35497;DHT22;21609;49.298;6.844;2024-02-23T10:57:39;18.50;50.70
35497;DHT22;21609;49.298;6.844;2024-02-23T11:00:07;18.40;50.20
35497;DHT22;21609;49.298;6.844;2024-02-23T11:02:46;18.40;50.60
35497;DHT22;21609;49.298;6.844;2024-02-23T11:05:15;18.50;51.40
35497;DHT22;21609;49.298;6.844;2024-02-23T11:07:41;18.60;50.80
35497;DHT22;21609;49.298;6.844;2024-02-23T11:10:07;18.70;50.60
35497;DHT22;21609;49.298;6.844;2024-02-23T11:12:34;18.90;50.30
35497;DHT22;21609;49.298;6.844;2024-02-23T11:15:01;19.00;50.20
35497;DHT22;21609;49.298;6.844;2024-02-23T11:17:28;19.10;50.10
35497;DHT22;21609;49.298;6.844;2024-02-23T11:19:55;19.10;50.00
35497;DHT22;21609;49.298;6.844;2024-02-23T11:22:30;19.10;50.00
35497;DHT22;21609;49.298;6.844;2024-02-23T11:25:00;19.10;49.90
35497;DHT22;21609;49.298;6.844;2024-02-23T11:27:30;19.10;49.90
35497;DHT22;21609;49.298;6.844;2024-02-23T11:30:01;19.20;49.90
35497;DHT22;21609;49.298;6.844;2024-02-23T11:32:38;19.20;50.40
35497;DHT22;21609;49.298;6.844;2024-02-23T11:35:06;19.30;49.70
35497;DHT22;21609;49.298;6.844;2024-02-23T11:37:32;19.30;49.70
35497;DHT22;21609;49.298;6.844;2024-02-23T11:40:00;19.40;49.80
35497;DHT22;21609;49.298;6.844;2024-02-23T11:42:27;19.40;49.90
35497;DHT22;21609;49.298;6.844;2024-02-23T11:44:53;19.50;49.90
35497;DHT22;21609;49.298;6.844;2024-02-23T11:47:21;19.50;49.80
35497;DHT22;21609;49.298;6.844;2024-02-23T11:49:47;19.50;49.80
35497;DHT22;21609;49.298;6.844;2024-02-23T11:52:12;19.50;49.80
35497;DHT22;21609;49.298;6.844;2024-02-23T11:54:38;19.50;49.80
35497;DHT22;21609;49.298;6.844;2024-02-23T11:57:04;19.50;49.70
35497;DHT22;21609;49.298;6.844;2024-02-23T11:59:29;19.50;49.70
35497;DHT22;21609;49.298;6.844;2024-02-23T12:01:55;19.60;49.80
35497;DHT22;21609;49.298;6.844;2024-02-23T12:04:21;19.60;49.80
35497;DHT22;21609;49.298;6.844;2024-02-23T12:06:47;19.60;49.80
35497;DHT22;21609;49.298;6.844;2024-02-23T12:09:13;19.60;49.90
35497;DHT22;21609;49.298;6.844;2024-02-23T12:11:39;19.60;49.80
35497;DHT22;21609;49.298;6.844;2024-02-23T12:14:05;19.60;50.00
35497;DHT22;21609;49.298;6.844;2024-02-23T12:16:34;19.60;50.00
35497;DHT22;21609;49.298;6.844;2024-02-23T12:19:03;19.60;50.00
35497;DHT22;21609;49.298;6.844;2024-02-23T12:21:29;19.60;50.00
35497;DHT22;21609;49.298;6.844;2024-02-23T12:23:54;19.50;50.20
35497;DHT22;21609;49.298;6.844;2024-02-23T12:26:20;19.50;50.20
35497;DHT22;21609;49.298;6.844;2024-02-23T12:28:46;19.50;50.30
35497;DHT22;21609;49.298;6.844;2024-02-23T12:31:12;19.50;50.30
35497;DHT22;21609;49.298;6.844;2024-02-23T12:33:38;19.50;50.30
35497;DHT22;21609;49.298;6.844;2024-02-23T12:36:08;19.50;50.40
35497;DHT22;21609;49.298;6.844;2024-02-23T12:38:35;19.50;50.40
35497;DHT22;21609;49.298;6.844;2024-02-23T12:41:01;19.40;50.40
35497;DHT22;21609;49.298;6.844;2024-02-23T12:43:28;19.40;50.20
35497;DHT22;21609;49.298;6.844;2024-02-23T12:45:54;19.40;50.50
35497;DHT22;21609;49.298;6.844;2024-02-23T12:48:20;19.40;50.40
35497;DHT22;21609;49.298;6.844;2024-02-23T12:50:47;19.40;50.40
35497;DHT22;21609;49.298;6.844;2024-02-23T12:53:35;19.50;50.50
35497;DHT22;21609;49.298;6.844;2024-02-23T12:56:06;19.40;50.20
35497;DHT22;21609;49.298;6.844;2024-02-23T12:58:34;19.40;50.40
35497;DHT22;21609;49.298;6.844;2024-02-23T13:01:00;19.40;50.40
35497;DHT22;21609;49.298;6.844;2024-02-23T13:03:26;19.50;50.90
35497;DHT22;21609;49.298;6.844;2024-02-23T13:05:55;19.50;50.50
35497;DHT22;21609;49.298;6.844;2024-02-23T13:08:22;19.50;50.40
35497;DHT22;21609;49.298;6.844;2024-02-23T13:10:48;19.40;50.40
35497;DHT22;21609;49.298;6.844;2024-02-23T13:13:14;19.40;50.50
35497;DHT22;21609;49.298;6.844;2024-02-23T13:15:41;19.40;50.50
35497;DHT22;21609;49.298;6.844;2024-02-23T13:18:06;19.40;50.40
35497;DHT22;21609;49.298;6.844;2024-02-23T13:20:32;19.50;50.30
35497;DHT22;21609;49.298;6.844;2024-02-23T13:22:58;19.40;50.10
35497;DHT22;21609;49.298;6.844;2024-02-23T13:25:23;19.50;50.20
35497;DHT22;21609;49.298;6.844;2024-02-23T13:27:49;19.50;50.50
35497;DHT22;21609;49.298;6.844;2024-02-23T13:30:15;19.50;50.40
35497;DHT22;21609;49.298;6.844;2024-02-23T13:32:41;19.50;50.50
35497;DHT22;21609;49.298;6.844;2024-02-23T13:35:07;19.50;50.40
35497;DHT22;21609;49.298;6.844;2024-02-23T13:37:34;19.50;50.50
35497;DHT22;21609;49.298;6.844;2024-02-23T13:40:00;19.50;50.70
35497;DHT22;21609;49.298;6.844;2024-02-23T13:42:25;19.50;50.50
35497;DHT22;21609;49.298;6.844;2024-02-23T13:44:51;19.50;50.30
35497;DHT22;21609;49.298;6.844;2024-02-23T13:47:16;19.40;50.50
35497;DHT22;21609;49.298;6.844;2024-02-23T13:49:42;19.70;50.30
35497;DHT22;21609;49.298;6.844;2024-02-23T13:52:08;19.90;50.20
35497;DHT22;21609;49.298;6.844;2024-02-23T13:54:34;19.80;49.80
35497;DHT22;21609;49.298;6.844;2024-02-23T13:56:59;19.70;49.70
35497;DHT22;21609;49.298;6.844;2024-02-23T13:59:25;19.90;50.20
35497;DHT22;21609;49.298;6.844;2024-02-23T14:01:50;20.10;49.90
35497;DHT22;21609;49.298;6.844;2024-02-23T14:04:16;20.10;49.50
35497;DHT22;21609;49.298;6.844;2024-02-23T14:06:42;20.10;49.60
35497;DHT22;21609;49.298;6.844;2024-02-23T14:09:08;19.90;49.70
35497;DHT22;21609;49.298;6.844;2024-02-23T14:11:34;19.90;49.70
35497;DHT22;21609;49.298;6.844;2024-02-23T14:13:59;19.80;49.80
35497;DHT22;21609;49.298;6.844;2024-02-23T14:16:25;19.80;49.80
35497;DHT22;21609;49.298;6.844;2024-02-23T14:18:50;19.80;49.70
35497;DHT22;21609;49.298;6.844;2024-02-23T14:23:51;19.80;49.60
35497;DHT22;21609;49.298;6.844;2024-02-23T14:26:17;19.80;49.70
35497;DHT22;21609;49.298;6.844;2024-02-23T14:28:42;19.80;49.50
35497;DHT22;21609;49.298;6.844;2024-02-23T14:31:08;19.80;49.50
35497;DHT22;21609;49.298;6.844;2024-02-23T14:33:34;19.80;49.40
35497;DHT22;21609;49.298;6.844;2024-02-23T14:35:59;19.80;49.50
35497;DHT22;21609;49.298;6.844;2024-02-23T14:38:25;19.80;49.70
35497;DHT22;21609;49.298;6.844;2024-02-23T14:40:51;19.80;49.70
35497;DHT22;21609;49.298;6.844;2024-02-23T14:43:18;19.80;49.80
35497;DHT22;21609;49.298;6.844;2024-02-23T14:45:44;19.70;49.70
35497;DHT22;21609;49.298;6.844;2024-02-23T14:48:09;19.60;49.80
35497;DHT22;21609;49.298;6.844;2024-02-23T14:50:35;19.70;49.80
35497;DHT22;21609;49.298;6.844;2024-02-23T14:53:00;19.70;49.80
35497;DHT22;21609;49.298;6.844;2024-02-23T14:55:26;19.80;49.70
35497;DHT22;21609;49.298;6.844;2024-02-23T14:57:52;19.80;49.60
35497;DHT22;21609;49.298;6.844;2024-02-23T15:00:18;19.90;49.40
35497;DHT22;21609;49.298;6.844;2024-02-23T15:02:43;19.90;49.40
35497;DHT22;21609;49.298;6.844;2024-02-23T15:05:09;20.00;49.40
35497;DHT22;21609;49.298;6.844;2024-02-23T15:07:35;20.00;49.60
35497;DHT22;21609;49.298;6.844;2024-02-23T15:10:02;20.00;49.40
35497;DHT22;21609;49.298;6.844;2024-02-23T15:12:34;20.10;49.40
35497;DHT22;21609;49.298;6.844;2024-02-23T15:14:59;20.20;49.30
35497;DHT22;21609;49.298;6.844;2024-02-23T15:17:25;20.10;49.40
35497;DHT22;21609;49.298;6.844;2024-02-23T15:19:50;20.10;49.20
35497;DHT22;21609;49.298;6.844;2024-02-23T15:22:16;20.10;49.50
35497;DHT22;21609;49.298;6.844;2024-02-23T15:24:44;20.00;49.50
35497;DHT22;21609;49.298;6.844;2024-02-23T15:27:11;20.10;49.60